Time;durP1;ratioP1;P1;durP2;ratioP2;P2;SDS_P1;SDS_P2;PMS_P1;PMS_P2;Temp;Humidity;BMP_temperature;BMP_pressure;BME280_temperature;BME280_humidity;BME280_pressure;Samples;Min_cycle;Max_cycle;Signal;HPM_P1;HPM_P2
2021/10/31 00:00:22;;;;;;;8.43;4.43;;;;;;;;;;4390049;32;20078;-63
2021/10/31 00:02:48;;;;;;;6.87;4.70;;;;;;;;;;4352337;32;20100;-63
2021/10/31 00:05:16;;;;;;;8.45;4.35;;;;;;;;;;4365050;32;20153;-62
2021/10/31 00:07:42;;;;;;;7.25;5.00;;;;;;;;;;4377122;32;20085;-63
2021/10/31 00:10:09;;;;;;;7.03;4.70;;;;;;;;;;4389375;32;20073;-63
2021/10/31 00:12:36;;;;;;;6.22;4.28;;;;;;;;;;4352499;32;20102;-62
2021/10/31 00:15:03;;;;;;;6.78;4.43;;;;;;;;;;4392209;32;20097;-63
2021/10/31 00:17:30;;;;;;;6.22;4.50;;;;;;;;;;4392474;32;20074;-62
2021/10/31 00:19:56;;;;;;;6.68;4.68;;;;;;;;;;4367690;32;20158;-63
2021/10/31 00:22:23;;;;;;;6.55;4.75;;;;;;;;;;4367311;32;20096;-63
2021/10/31 00:24:50;;;;;;;7.12;4.60;;;;;;;;;;4367123;32;20069;-63
2021/10/31 00:27:16;;;;;;;6.53;4.50;;;;;;;;;;4393348;32;20164;-63
2021/10/31 00:29:44;;;;;;;7.10;4.70;;;;;;;;;;4367204;32;20081;-61
2021/10/31 00:32:10;;;;;;;5.80;4.28;;;;;;;;;;4380196;32;20085;-64
2021/10/31 00:34:37;;;;;;;6.47;4.22;;;;;;;;;;4380218;32;20070;-64
2021/10/31 00:37:04;;;;;;;6.28;4.22;;;;;;;;;;4379640;32;20463;-62
2021/10/31 00:39:30;;;;;;;6.30;4.18;;;;;;;;;;4391898;32;20555;-62
2021/10/31 00:41:57;;;;;;;6.85;4.35;;;;;;;;;;4366970;32;20086;-63
2021/10/31 00:44:24;;;;;;;6.62;4.30;;;;;;;;;;4392051;32;20061;-63
2021/10/31 00:46:51;;;;;;;6.47;4.47;;;;;;;;;;4366964;32;20093;-64
2021/10/31 00:49:18;;;;;;;6.95;4.55;;;;;;;;;;4392145;32;20066;-63
2021/10/31 00:51:45;;;;;;;9.07;4.97;;;;;;;;;;4391728;32;20108;-63
2021/10/31 00:54:12;;;;;;;6.43;4.32;;;;;;;;;;4367573;32;20073;-63
2021/10/31 00:56:38;;;;;;;6.40;4.15;;;;;;;;;;4367104;32;20568;-63
2021/10/31 00:59:05;;;;;;;6.40;4.55;;;;;;;;;;4379973;32;20166;-66
2021/10/31 01:01:33;;;;;;;6.90;4.40;;;;;;;;;;4380572;32;20146;-62
2021/10/31 01:03:59;;;;;;;7.12;4.80;;;;;;;;;;4379501;32;20077;-63
2021/10/31 01:06:35;;;;;;;6.20;4.55;;;;;;;;;;4391747;32;20522;-63
2021/10/31 01:09:14;;;;;;;6.90;4.53;;;;;;;;;;4391339;32;20162;-63
2021/10/31 01:12:02;;;;;;;6.93;4.85;;;;;;;;;;4391695;32;20154;-64
2021/10/31 01:14:53;;;;;;;6.53;4.47;;;;;;;;;;4381287;32;20168;-64
2021/10/31 01:17:46;;;;;;;6.62;4.35;;;;;;;;;;4378800;32;20082;-63
2021/10/31 01:20:28;;;;;;;6.32;4.22;;;;;;;;;;4391726;32;20538;-63
2021/10/31 01:23:17;;;;;;;6.90;4.25;;;;;;;;;;4380195;32;20100;-62
2021/10/31 01:26:03;;;;;;;6.45;4.10;;;;;;;;;;4378824;32;20159;-62
2021/10/31 01:28:47;;;;;;;6.68;3.97;;;;;;;;;;4379075;32;20548;-64
2021/10/31 01:31:22;;;;;;;5.32;3.97;;;;;;;;;;4391293;32;20089;-63
2021/10/31 01:33:51;;;;;;;7.20;4.80;;;;;;;;;;4379507;32;20085;-63
2021/10/31 01:36:27;;;;;;;6.20;4.10;;;;;;;;;;4391258;32;20149;-64
2021/10/31 01:39:12;;;;;;;7.18;4.53;;;;;;;;;;4391315;32;20089;-62
2021/10/31 01:42:08;;;;;;;6.37;4.10;;;;;;;;;;4367615;32;20483;-64
2021/10/31 01:44:38;;;;;;;6.43;4.03;;;;;;;;;;4391427;32;20062;-63
2021/10/31 01:47:34;;;;;;;6.35;4.30;;;;;;;;;;4391105;32;20142;-63
2021/10/31 01:50:03;;;;;;;5.62;4.10;;;;;;;;;;4391052;32;20173;-61
2021/10/31 01:52:41;;;;;;;6.55;4.20;;;;;;;;;;4378808;32;20244;-62
2021/10/31 01:55:13;;;;;;;4.97;3.53;;;;;;;;;;4354800;32;20118;-63
2021/10/31 01:57:43;;;;;;;5.90;4.00;;;;;;;;;;4378512;32;20101;-62
2021/10/31 02:00:13;;;;;;;6.87;4.57;;;;;;;;;;4378872;32;20096;-62
2021/10/31 02:02:42;;;;;;;7.68;4.43;;;;;;;;;;4378371;32;20082;-62
2021/10/31 02:05:09;;;;;;;6.22;4.05;;;;;;;;;;4378790;32;20081;-62
2021/10/31 02:07:40;;;;;;;7.50;4.68;;;;;;;;;;4378511;32;20153;-63
2021/10/31 02:10:08;;;;;;;5.95;4.30;;;;;;;;;;4378371;32;20512;-62
2021/10/31 02:12:34;;;;;;;6.87;4.47;;;;;;;;;;4353802;32;20077;-63
2021/10/31 02:15:01;;;;;;;6.53;4.15;;;;;;;;;;4378235;32;20070;-63
2021/10/31 02:17:28;;;;;;;8.50;4.18;;;;;;;;;;4391549;32;20083;-63
2021/10/31 02:19:54;;;;;;;10.60;4.37;;;;;;;;;;4390653;32;20082;-63
2021/10/31 02:22:25;;;;;;;5.72;3.90;;;;;;;;;;4378876;32;20478;-63
2021/10/31 02:24:52;;;;;;;5.95;4.22;;;;;;;;;;4378664;32;20100;-62
2021/10/31 02:27:21;;;;;;;6.70;3.72;;;;;;;;;;4365487;32;20085;-63
2021/10/31 02:29:57;;;;;;;6.57;4.30;;;;;;;;;;4365753;32;20153;-63
2021/10/31 02:32:25;;;;;;;;;;;;;;;;;;4379377;32;20189;-63
2021/10/31 02:34:52;;;;;;;7.87;4.43;;;;;;;;;;4390829;32;20375;-61
2021/10/31 02:39:58;;;;;;;7.28;4.62;;;;;;;;;;3857419;37;20077;-63
2021/10/31 02:42:26;;;;;;;5.65;4.10;;;;;;;;;;4393895;32;20109;-62
2021/10/31 02:44:53;;;;;;;7.85;4.85;;;;;;;;;;4393260;32;20095;-63
2021/10/31 02:48:05;;;;;;;6.97;4.28;;;;;;;;;;4393597;32;20148;-63
2021/10/31 02:50:44;;;;;;;8.82;4.97;;;;;;;;;;4332505;32;20096;-62
2021/10/31 02:53:25;;;;;;;6.30;4.37;;;;;;;;;;4402479;32;20100;-63
2021/10/31 02:56:33;;;;;;;7.10;4.57;;;;;;;;;;4394510;32;20076;-63
2021/10/31 02:59:20;;;;;;;7.03;4.57;;;;;;;;;;4395247;32;20164;-62
2021/10/31 03:01:47;;;;;;;;;;;;;;;;;;4406626;32;20069;-63
2021/10/31 03:04:15;;;;;;;6.80;4.70;;;;;;;;;;4405822;32;20450;-62
2021/10/31 03:06:43;;;;;;;7.10;4.75;;;;;;;;;;4405835;32;20156;-63
2021/10/31 03:09:22;;;;;;;7.22;4.25;;;;;;;;;;3857294;37;20078;-63
2021/10/31 03:11:48;;;;;;;6.00;4.30;;;;;;;;;;4406102;32;20074;-61
2021/10/31 03:14:15;;;;;;;7.35;4.68;;;;;;;;;;4406043;32;20107;-63
2021/10/31 03:16:42;;;;;;;7.85;5.07;;;;;;;;;;4393450;32;20180;-63
2021/10/31 03:19:08;;;;;;;6.68;4.50;;;;;;;;;;4405684;32;20133;-62
2021/10/31 03:21:35;;;;;;;7.43;4.75;;;;;;;;;;4418293;32;20088;-63
2021/10/31 03:24:02;;;;;;;7.80;5.40;;;;;;;;;;4392760;32;20571;-62
2021/10/31 03:26:29;;;;;;;7.28;4.80;;;;;;;;;;4406056;32;20162;-63
2021/10/31 03:28:55;;;;;;;9.18;5.03;;;;;;;;;;4419104;32;20518;-62
2021/10/31 03:31:23;;;;;;;9.10;5.07;;;;;;;;;;4394063;32;20095;-61
2021/10/31 03:33:50;;;;;;;7.53;5.18;;;;;;;;;;4406976;32;20081;-63
2021/10/31 03:36:16;;;;;;;7.72;4.87;;;;;;;;;;4380391;32;20146;-63
2021/10/31 03:38:43;;;;;;;8.93;4.45;;;;;;;;;;4405299;32;20073;-63
2021/10/31 03:41:10;;;;;;;8.38;4.65;;;;;;;;;;4405370;32;20183;-62
2021/10/31 03:43:36;;;;;;;8.25;5.00;;;;;;;;;;4418062;32;20080;-63
2021/10/31 03:46:03;;;;;;;7.78;4.93;;;;;;;;;;4405426;32;20081;-62
2021/10/31 03:48:30;;;;;;;8.20;4.97;;;;;;;;;;4393168;32;20483;-63
2021/10/31 03:50:56;;;;;;;6.78;4.75;;;;;;;;;;4392583;32;20086;-63
2021/10/31 03:53:23;;;;;;;7.90;4.95;;;;;;;;;;4419795;32;20084;-62
2021/10/31 03:55:50;;;;;;;7.93;5.20;;;;;;;;;;4381098;32;20089;-62
2021/10/31 03:58:16;;;;;;;7.30;5.00;;;;;;;;;;4405060;32;20085;-64
2021/10/31 04:02:55;;;;;;;7.40;5.05;;;;;;;;;;3857469;37;20069;-62
2021/10/31 04:05:23;;;;;;;8.27;5.00;;;;;;;;;;4418960;32;20157;-62
2021/10/31 04:07:50;;;;;;;7.70;5.25;;;;;;;;;;4405767;32;20478;-64
2021/10/31 04:10:17;;;;;;;8.05;5.15;;;;;;;;;;4393369;32;20454;-63
2021/10/31 04:12:43;;;;;;;7.80;4.87;;;;;;;;;;4381264;32;20460;-63
2021/10/31 04:15:10;;;;;;;8.45;5.05;;;;;;;;;;4418465;32;20168;-63
2021/10/31 04:17:37;;;;;;;7.70;5.25;;;;;;;;;;4392666;32;20533;-62
2021/10/31 04:20:04;;;;;;;7.30;4.72;;;;;;;;;;4405795;32;20097;-62
2021/10/31 04:22:31;;;;;;;7.00;4.80;;;;;;;;;;4405460;32;20081;-62
2021/10/31 04:24:58;;;;;;;8.32;5.20;;;;;;;;;;4417926;32;20515;-62
2021/10/31 04:27:25;;;;;;;8.20;5.35;;;;;;;;;;4405449;32;20138;-63
2021/10/31 04:29:52;;;;;;;7.28;5.10;;;;;;;;;;4393113;32;20093;-63
2021/10/31 04:32:18;;;;;;;8.95;5.50;;;;;;;;;;4393371;32;20165;-62
2021/10/31 04:34:45;;;;;;;8.20;4.93;;;;;;;;;;4380728;32;20176;-63
2021/10/31 04:37:12;;;;;;;7.20;4.55;;;;;;;;;;4407080;32;20466;-61
2021/10/31 04:39:40;;;;;;;7.10;5.12;;;;;;;;;;4390517;32;20074;-62
2021/10/31 04:42:09;;;;;;;7.70;5.18;;;;;;;;;;4402519;32;20074;-63
2021/10/31 04:44:36;;;;;;;8.10;5.18;;;;;;;;;;4415278;32;20099;-63
2021/10/31 04:47:02;;;;;;;7.65;4.97;;;;;;;;;;4411057;32;20065;-63
2021/10/31 04:49:30;;;;;;;7.85;5.12;;;;;;;;;;4418237;32;20073;-63
2021/10/31 04:51:57;;;;;;;7.62;5.07;;;;;;;;;;4392632;32;20074;-63
2021/10/31 04:54:24;;;;;;;7.43;4.72;;;;;;;;;;4405154;32;20099;-63
2021/10/31 04:56:51;;;;;;;8.15;4.95;;;;;;;;;;4380296;32;20175;-63
2021/10/31 04:59:18;;;;;;;8.65;4.82;;;;;;;;;;4404858;32;20084;-63
2021/10/31 05:01:45;;;;;;;8.55;4.93;;;;;;;;;;4417416;32;20081;-63
2021/10/31 05:04:12;;;;;;;9.00;4.78;;;;;;;;;;4392398;32;20089;-62
2021/10/31 05:06:39;;;;;;;7.60;4.85;;;;;;;;;;4392387;32;20065;-64
2021/10/31 05:09:06;;;;;;;7.40;4.55;;;;;;;;;;4417508;32;20087;-63
2021/10/31 05:11:33;;;;;;;8.90;5.20;;;;;;;;;;4405197;32;20075;-63
2021/10/31 05:13:59;;;;;;;6.10;4.30;;;;;;;;;;4371176;32;20219;-60
2021/10/31 05:16:26;;;;;;;10.25;5.05;;;;;;;;;;4381671;32;20085;-63
2021/10/31 05:18:55;;;;;;;8.35;4.97;;;;;;;;;;4381978;32;20108;-63
2021/10/31 05:21:21;;;;;;;8.68;5.22;;;;;;;;;;4369736;32;20078;-63
2021/10/31 05:23:48;;;;;;;6.97;4.47;;;;;;;;;;4406986;32;20074;-62
2021/10/31 05:26:15;;;;;;;9.27;5.00;;;;;;;;;;4382131;32;20590;-63
2021/10/31 05:28:41;;;;;;;8.10;5.07;;;;;;;;;;4394671;32;20237;-63
2021/10/31 05:31:08;;;;;;;8.07;5.20;;;;;;;;;;4407263;32;20084;-63
2021/10/31 05:33:34;;;;;;;8.63;4.93;;;;;;;;;;4394333;32;20080;-62
2021/10/31 05:36:01;;;;;;;8.15;5.07;;;;;;;;;;4381968;32;20584;-62
2021/10/31 05:38:27;;;;;;;7.28;5.10;;;;;;;;;;4407242;32;20540;-63
2021/10/31 05:40:54;;;;;;;11.32;5.57;;;;;;;;;;4394575;32;20077;-62
2021/10/31 05:43:20;;;;;;;9.82;5.12;;;;;;;;;;4407154;32;20487;-64
2021/10/31 05:45:47;;;;;;;7.87;5.28;;;;;;;;;;4369299;32;20515;-63
2021/10/31 05:48:14;;;;;;;9.75;6.25;;;;;;;;;;4382604;32;20084;-62
2021/10/31 05:50:40;;;;;;;7.85;5.47;;;;;;;;;;4394806;32;20093;-61
2021/10/31 05:53:07;;;;;;;9.82;5.78;;;;;;;;;;4381443;32;20066;-63
2021/10/31 05:55:34;;;;;;;8.55;5.10;;;;;;;;;;4394684;32;20092;-63
2021/10/31 05:58:00;;;;;;;10.07;6.12;;;;;;;;;;4406769;32;20080;-62
2021/10/31 06:00:27;;;;;;;10.05;6.87;;;;;;;;;;4381740;32;20084;-62
2021/10/31 06:02:53;;;;;;;11.70;5.97;;;;;;;;;;4410136;32;20106;-64
2021/10/31 06:05:20;;;;;;;10.80;6.00;;;;;;;;;;4396908;32;20563;-61
2021/10/31 06:07:47;;;;;;;8.95;6.03;;;;;;;;;;4394189;32;20145;-62
2021/10/31 06:10:13;;;;;;;8.50;5.75;;;;;;;;;;4394162;32;20073;-63
2021/10/31 06:12:44;;;;;;;9.13;6.30;;;;;;;;;;4381223;32;20095;-63
2021/10/31 06:15:12;;;;;;;11.10;6.37;;;;;;;;;;4393986;32;20065;-63
2021/10/31 06:17:39;;;;;;;9.98;6.32;;;;;;;;;;4394079;32;20073;-63
2021/10/31 06:20:08;;;;;;;9.32;5.82;;;;;;;;;;4393662;32;20503;-61
2021/10/31 06:22:34;;;;;;;10.68;7.10;;;;;;;;;;4394072;32;20091;-63
2021/10/31 06:25:00;;;;;;;10.63;6.00;;;;;;;;;;4405489;32;20057;-62
2021/10/31 06:27:27;;;;;;;11.88;6.55;;;;;;;;;;4408242;32;20127;-63
2021/10/31 06:29:54;;;;;;;9.45;6.43;;;;;;;;;;4381245;32;20073;-62
2021/10/31 06:32:20;;;;;;;10.35;6.55;;;;;;;;;;4381384;32;20074;-63
2021/10/31 06:34:47;;;;;;;11.20;6.32;;;;;;;;;;4393669;32;20066;-63
2021/10/31 06:37:14;;;;;;;9.95;6.65;;;;;;;;;;4381195;32;20161;-63
2021/10/31 06:39:41;;;;;;;13.02;6.55;;;;;;;;;;4381041;32;20178;-63
2021/10/31 06:42:07;;;;;;;10.80;6.75;;;;;;;;;;4368441;32;20088;-62
2021/10/31 06:44:34;;;;;;;9.77;6.20;;;;;;;;;;4405725;32;20085;-63
2021/10/31 06:47:01;;;;;;;10.40;6.97;;;;;;;;;;4393620;32;20081;-62
2021/10/31 06:49:28;;;;;;;10.07;6.50;;;;;;;;;;4380694;32;20161;-63
2021/10/31 06:51:56;;;;;;;11.75;6.70;;;;;;;;;;4381043;32;20096;-63
2021/10/31 06:54:22;;;;;;;10.57;7.28;;;;;;;;;;4393533;32;20069;-62
2021/10/31 06:56:49;;;;;;;11.63;6.57;;;;;;;;;;4380964;32;20161;-63
2021/10/31 06:59:16;;;;;;;13.43;6.72;;;;;;;;;;4380861;32;20091;-62
2021/10/31 07:01:43;;;;;;;10.15;7.20;;;;;;;;;;4393105;32;20089;-63
2021/10/31 07:04:10;;;;;;;11.07;7.50;;;;;;;;;;4380580;32;20072;-62
2021/10/31 07:06:37;;;;;;;10.65;7.05;;;;;;;;;;4393359;32;20523;-64
2021/10/31 07:09:03;;;;;;;11.43;7.00;;;;;;;;;;4380668;32;20073;-63
2021/10/31 07:11:30;;;;;;;10.88;6.80;;;;;;;;;;4381358;32;20092;-64
2021/10/31 07:13:56;;;;;;;12.35;7.80;;;;;;;;;;4393095;32;20084;-62
2021/10/31 07:16:23;;;;;;;11.00;7.87;;;;;;;;;;4405605;32;20077;-63
2021/10/31 07:18:49;;;;;;;12.90;7.53;;;;;;;;;;4406871;32;20069;-62
2021/10/31 07:21:16;;;;;;;13.15;7.65;;;;;;;;;;4380563;32;20170;-63
2021/10/31 07:23:43;;;;;;;12.15;7.28;;;;;;;;;;4405606;32;20104;-63
2021/10/31 07:26:09;;;;;;;11.32;7.30;;;;;;;;;;4393145;32;20511;-62
2021/10/31 07:28:36;;;;;;;12.15;7.93;;;;;;;;;;4393023;32;20065;-63
2021/10/31 07:31:04;;;;;;;13.73;8.25;;;;;;;;;;4392653;32;20089;-62
2021/10/31 07:33:31;;;;;;;15.57;8.20;;;;;;;;;;4380513;32;20080;-62
2021/10/31 07:35:58;;;;;;;13.90;7.10;;;;;;;;;;4392641;32;20080;-62
2021/10/31 07:38:25;;;;;;;12.10;7.53;;;;;;;;;;4405161;32;20451;-63
2021/10/31 07:40:52;;;;;;;11.75;7.43;;;;;;;;;;4392965;32;20093;-63
2021/10/31 07:43:18;;;;;;;13.27;7.20;;;;;;;;;;4367857;32;20080;-63
2021/10/31 07:45:47;;;;;;;10.07;6.78;;;;;;;;;;4405285;32;20501;-63
2021/10/31 07:48:14;;;;;;;12.37;7.55;;;;;;;;;;4405419;32;20066;-65
2021/10/31 07:50:40;;;;;;;10.13;6.20;;;;;;;;;;4406568;32;20177;-63
2021/10/31 07:53:09;;;;;;;11.50;7.93;;;;;;;;;;4392917;32;20075;-63
2021/10/31 07:55:37;;;;;;;13.40;7.45;;;;;;;;;;4380563;32;20105;-63
2021/10/31 07:58:04;;;;;;;13.50;7.53;;;;;;;;;;4392970;32;20081;-63
2021/10/31 08:00:31;;;;;;;13.00;7.97;;;;;;;;;;4392209;32;20116;-63
2021/10/31 08:02:58;;;;;;;11.77;7.90;;;;;;;;;;4392357;32;20104;-63
2021/10/31 08:05:24;;;;;;;11.95;7.45;;;;;;;;;;4404977;32;20074;-63
2021/10/31 08:07:52;;;;;;;13.50;8.07;;;;;;;;;;4406472;32;20073;-64
2021/10/31 08:10:18;;;;;;;12.77;7.80;;;;;;;;;;4380537;32;20074;-62
2021/10/31 08:12:45;;;;;;;11.18;7.25;;;;;;;;;;4367911;32;20515;-63
2021/10/31 08:15:13;;;;;;;10.65;7.28;;;;;;;;;;4380161;32;20166;-64
2021/10/31 08:17:39;;;;;;;10.70;6.80;;;;;;;;;;4367129;32;20081;-61
2021/10/31 08:20:07;;;;;;;12.00;7.47;;;;;;;;;;4379926;32;20073;-63
2021/10/31 08:22:34;;;;;;;11.10;6.85;;;;;;;;;;4367576;32;20072;-63
2021/10/31 08:25:01;;;;;;;13.25;7.93;;;;;;;;;;4392578;32;20078;-61
2021/10/31 08:27:28;;;;;;;12.95;7.55;;;;;;;;;;4405494;32;20089;-61
2021/10/31 08:29:55;;;;;;;11.85;7.75;;;;;;;;;;4392970;32;20093;-61
2021/10/31 08:32:24;;;;;;;12.77;7.22;;;;;;;;;;4398415;32;20081;-61
2021/10/31 08:34:52;;;;;;;10.65;6.80;;;;;;;;;;4396570;32;20133;-62
2021/10/31 08:37:18;;;;;;;11.90;7.45;;;;;;;;;;4380487;32;20097;-63
2021/10/31 08:39:45;;;;;;;12.02;7.12;;;;;;;;;;4379991;32;20073;-61
2021/10/31 08:42:14;;;;;;;12.35;7.37;;;;;;;;;;4379582;32;20096;-62
2021/10/31 08:44:41;;;;;;;11.45;7.10;;;;;;;;;;4380144;32;20154;-63
2021/10/31 08:47:08;;;;;;;13.02;7.47;;;;;;;;;;4379921;32;20100;-61
2021/10/31 08:49:35;;;;;;;13.73;7.95;;;;;;;;;;4381941;32;20076;-62
2021/10/31 08:52:05;;;;;;;11.45;6.70;;;;;;;;;;4395178;32;20436;-62
2021/10/31 08:54:34;;;;;;;11.60;7.25;;;;;;;;;;4395405;32;20081;-61
2021/10/31 08:57:01;;;;;;;12.60;7.37;;;;;;;;;;4395260;32;20085;-61
2021/10/31 08:59:29;;;;;;;11.57;7.10;;;;;;;;;;4382757;32;20110;-61
2021/10/31 09:01:56;;;;;;;13.45;7.60;;;;;;;;;;4369561;32;20088;-62
2021/10/31 09:04:22;;;;;;;12.70;7.68;;;;;;;;;;4395345;32;20074;-62
2021/10/31 09:06:49;;;;;;;14.45;8.50;;;;;;;;;;4407962;32;20093;-62
2021/10/31 09:09:18;;;;;;;13.98;7.95;;;;;;;;;;4407743;32;20105;-62
2021/10/31 09:11:46;;;;;;;12.43;7.82;;;;;;;;;;4395590;32;20133;-63
2021/10/31 09:14:16;;;;;;;11.93;7.15;;;;;;;;;;4408556;32;20096;-62
2021/10/31 09:16:43;;;;;;;12.93;8.05;;;;;;;;;;4383240;32;20064;-61
2021/10/31 09:19:10;;;;;;;11.18;7.47;;;;;;;;;;4407166;32;20078;-62
2021/10/31 09:21:36;;;;;;;12.48;7.82;;;;;;;;;;4382309;32;20078;-61
2021/10/31 09:24:04;;;;;;;13.32;7.72;;;;;;;;;;4381916;32;20073;-62
2021/10/31 09:26:30;;;;;;;11.65;7.12;;;;;;;;;;4394851;32;20092;-61
2021/10/31 09:28:58;;;;;;;12.48;7.40;;;;;;;;;;4382540;32;20072;-63
2021/10/31 09:31:24;;;;;;;11.82;7.70;;;;;;;;;;4382574;32;20428;-63
2021/10/31 09:33:51;;;;;;;14.27;8.15;;;;;;;;;;4382062;32;20077;-64
2021/10/31 09:36:19;;;;;;;13.27;7.43;;;;;;;;;;4382042;32;20077;-63
2021/10/31 09:38:46;;;;;;;12.45;7.62;;;;;;;;;;4394675;32;20184;-64
2021/10/31 09:41:14;;;;;;;10.75;6.87;;;;;;;;;;4408710;32;20069;-63
2021/10/31 09:43:48;;;;;;;10.40;6.87;;;;;;;;;;4394250;32;20157;-63
2021/10/31 09:46:15;;;;;;;12.23;7.00;;;;;;;;;;4383094;32;20081;-63
2021/10/31 09:48:42;;;;;;;11.70;7.15;;;;;;;;;;4369325;32;20077;-63
2021/10/31 09:51:08;;;;;;;11.60;7.32;;;;;;;;;;4394293;32;20162;-65
2021/10/31 09:53:35;;;;;;;12.15;7.57;;;;;;;;;;4381292;32;20078;-63
2021/10/31 09:56:02;;;;;;;11.55;7.25;;;;;;;;;;4394112;32;20104;-63
2021/10/31 09:58:37;;;;;;;12.63;7.18;;;;;;;;;;4381830;32;20069;-63
2021/10/31 10:01:30;;;;;;;12.43;8.43;;;;;;;;;;4407721;32;20536;-63
2021/10/31 10:03:57;;;;;;;11.20;7.43;;;;;;;;;;4378673;32;20088;-62
2021/10/31 10:06:32;;;;;;;10.80;7.25;;;;;;;;;;4406656;32;20077;-61
2021/10/31 10:09:08;;;;;;;9.43;7.20;;;;;;;;;;4382989;32;20085;-63
2021/10/31 10:11:37;;;;;;;12.40;6.75;;;;;;;;;;4395012;32;20066;-62
2021/10/31 10:14:24;;;;;;;10.85;6.85;;;;;;;;;;4407705;32;20070;-63
2021/10/31 10:17:01;;;;;;;10.77;7.45;;;;;;;;;;4394559;32;20073;-63
2021/10/31 10:19:34;;;;;;;12.55;7.22;;;;;;;;;;4395438;32;20073;-62
2021/10/31 10:22:09;;;;;;;12.60;7.32;;;;;;;;;;4408150;32;20087;-63
2021/10/31 10:25:00;;;;;;;10.75;7.20;;;;;;;;;;4395890;32;20154;-62
2021/10/31 10:27:35;;;;;;;10.88;6.68;;;;;;;;;;4407922;32;20074;-62
2021/10/31 10:30:15;;;;;;;11.85;7.90;;;;;;;;;;4389920;32;20084;-63
2021/10/31 10:32:50;;;;;;;11.80;7.62;;;;;;;;;;4390948;32;20070;-62
2021/10/31 10:35:17;;;;;;;12.68;7.72;;;;;;;;;;4398812;32;20460;-63
2021/10/31 10:37:44;;;;;;;10.88;7.95;;;;;;;;;;4406693;32;20586;-63
2021/10/31 10:40:19;;;;;;;12.80;7.47;;;;;;;;;;4381664;32;20073;-63
2021/10/31 10:42:52;;;;;;;13.57;8.68;;;;;;;;;;4406640;32;20069;-62
2021/10/31 10:45:22;;;;;;;12.13;8.32;;;;;;;;;;4381407;32;20070;-63
2021/10/31 10:47:56;;;;;;;14.63;8.70;;;;;;;;;;4381240;32;20077;-63
2021/10/31 10:50:25;;;;;;;12.57;8.57;;;;;;;;;;4394765;32;20488;-63
2021/10/31 10:52:52;;;;;;;12.63;8.90;;;;;;;;;;4406734;32;20080;-63
2021/10/31 10:55:20;;;;;;;14.55;9.25;;;;;;;;;;4368829;32;20081;-62
2021/10/31 10:57:49;;;;;;;15.02;9.30;;;;;;;;;;4409548;32;20511;-62
2021/10/31 11:00:20;;;;;;;13.50;9.35;;;;;;;;;;4396509;32;20093;-61
2021/10/31 11:03:06;;;;;;;13.07;8.32;;;;;;;;;;4405664;32;20517;-61
2021/10/31 11:05:37;;;;;;;12.32;8.85;;;;;;;;;;4382578;32;20070;-62
2021/10/31 11:08:15;;;;;;;12.52;8.38;;;;;;;;;;4380872;32;20069;-63
2021/10/31 11:10:46;;;;;;;11.85;7.35;;;;;;;;;;4380686;32;20518;-63
2021/10/31 11:13:13;;;;;;;10.38;7.18;;;;;;;;;;4393202;32;20446;-62
2021/10/31 11:15:40;;;;;;;11.40;7.65;;;;;;;;;;4407011;32;20066;-63
2021/10/31 11:18:07;;;;;;;12.00;7.37;;;;;;;;;;4380695;32;20068;-62
2021/10/31 11:20:37;;;;;;;11.35;6.97;;;;;;;;;;4380470;32;20425;-63
2021/10/31 11:23:05;;;;;;;12.95;7.10;;;;;;;;;;4405510;32;20249;-62
2021/10/31 11:25:33;;;;;;;12.65;7.68;;;;;;;;;;4405365;32;20482;-61
2021/10/31 11:28:01;;;;;;;10.63;7.40;;;;;;;;;;4380568;32;20095;-62
2021/10/31 11:30:30;;;;;;;11.93;7.15;;;;;;;;;;4380456;32;20113;-61
2021/10/31 11:32:57;;;;;;;12.25;6.95;;;;;;;;;;4380766;32;20092;-63
2021/10/31 11:35:24;;;;;;;12.13;7.78;;;;;;;;;;4367834;32;20081;-63
2021/10/31 11:38:18;;;;;;;10.25;6.90;;;;;;;;;;4368231;32;20480;-63
2021/10/31 11:40:58;;;;;;;12.60;7.30;;;;;;;;;;4390029;32;20157;-63
2021/10/31 11:43:26;;;;;;;11.98;8.20;;;;;;;;;;4392551;32;20076;-63
2021/10/31 11:45:55;;;;;;;11.23;7.10;;;;;;;;;;4380306;32;20077;-61
2021/10/31 11:48:26;;;;;;;11.60;7.53;;;;;;;;;;4392866;32;20182;-62
2021/10/31 11:51:05;;;;;;;11.68;7.70;;;;;;;;;;4393105;32;20497;-63
2021/10/31 11:54:07;;;;;;;11.10;7.45;;;;;;;;;;4392565;32;20081;-62
2021/10/31 11:56:44;;;;;;;13.35;8.15;;;;;;;;;;4392076;32;20612;-63
2021/10/31 11:59:12;;;;;;;13.88;7.97;;;;;;;;;;4393892;32;20072;-63
2021/10/31 12:02:01;;;;;;;13.05;8.32;;;;;;;;;;4392104;32;20070;-62
2021/10/31 12:07:40;;;;;;;13.10;8.18;;;;;;;;;;4406534;32;20506;-62
2021/10/31 12:10:28;;;;;;;12.43;8.65;;;;;;;;;;4392727;32;20073;-62
2021/10/31 12:13:25;;;;;;;13.25;8.35;;;;;;;;;;4392445;32;20073;-64
2021/10/31 12:16:13;;;;;;;13.43;7.70;;;;;;;;;;4389801;32;20077;-63
2021/10/31 12:18:51;;;;;;;12.75;7.78;;;;;;;;;;4381375;32;20515;-63
2021/10/31 12:21:33;;;;;;;13.07;9.18;;;;;;;;;;4404868;32;20498;-63
2021/10/31 12:24:04;;;;;;;11.50;8.20;;;;;;;;;;4383593;32;20054;-63
2021/10/31 12:26:47;;;;;;;10.82;7.60;;;;;;;;;;4395957;32;20084;-62
2021/10/31 12:29:16;;;;;;;14.25;8.57;;;;;;;;;;4396003;32;20076;-62
2021/10/31 12:32:24;;;;;;;13.23;8.10;;;;;;;;;;4408725;32;20081;-63
2021/10/31 12:34:52;;;;;;;13.43;8.13;;;;;;;;;;4368391;32;20070;-63
2021/10/31 12:37:22;;;;;;;15.10;8.07;;;;;;;;;;4397022;32;20084;-62
2021/10/31 12:39:51;;;;;;;14.25;8.02;;;;;;;;;;4407805;32;20069;-62
2021/10/31 12:42:29;;;;;;;13.35;8.60;;;;;;;;;;4395626;32;20491;-64
2021/10/31 12:44:58;;;;;;;13.95;8.38;;;;;;;;;;4382811;32;20084;-62
2021/10/31 12:47:36;;;;;;;11.95;7.57;;;;;;;;;;4407890;32;20076;-62
2021/10/31 12:50:12;;;;;;;13.38;8.05;;;;;;;;;;4408015;32;20073;-62
2021/10/31 12:52:41;;;;;;;12.77;7.70;;;;;;;;;;4394821;32;20099;-63
2021/10/31 12:55:16;;;;;;;17.73;7.97;;;;;;;;;;4407914;32;20089;-63
2021/10/31 12:58:03;;;;;;;12.48;8.13;;;;;;;;;;4395824;32;20503;-61
2021/10/31 13:00:42;;;;;;;13.52;7.93;;;;;;;;;;4408962;32;20078;-62
2021/10/31 13:03:09;;;;;;;12.45;7.68;;;;;;;;;;4407609;32;20099;-61
2021/10/31 13:05:39;;;;;;;11.70;7.80;;;;;;;;;;4369681;32;20070;-63
2021/10/31 13:08:09;;;;;;;10.45;7.25;;;;;;;;;;4407556;32;20467;-62
2021/10/31 13:10:53;;;;;;;13.02;7.82;;;;;;;;;;4407732;32;20077;-63
2021/10/31 13:13:21;;;;;;;12.50;8.18;;;;;;;;;;4407120;32;20145;-63
2021/10/31 13:15:57;;;;;;;14.52;8.90;;;;;;;;;;4382895;32;20115;-63
2021/10/31 13:18:25;;;;;;;13.20;7.82;;;;;;;;;;4395555;32;20108;-62
2021/10/31 13:20:55;;;;;;;15.30;8.50;;;;;;;;;;4382814;32;20527;-62
2021/10/31 13:23:23;;;;;;;12.48;8.65;;;;;;;;;;4411897;32;20073;-61
2021/10/31 13:26:03;;;;;;;15.32;8.55;;;;;;;;;;4413899;32;20432;-62
2021/10/31 13:28:32;;;;;;;15.85;8.00;;;;;;;;;;4408022;32;20145;-62
2021/10/31 13:31:04;;;;;;;11.25;7.68;;;;;;;;;;4382545;32;20084;-62
2021/10/31 13:33:41;;;;;;;11.82;7.90;;;;;;;;;;4382209;32;20516;-62
2021/10/31 13:36:10;;;;;;;11.43;7.07;;;;;;;;;;4394275;32;20077;-63
2021/10/31 13:39:26;;;;;;;13.18;7.37;;;;;;;;;;4394658;32;20517;-63
2021/10/31 13:41:53;;;;;;;9.07;6.53;;;;;;;;;;4392441;32;20082;-61
2021/10/31 13:44:22;;;;;;;12.10;7.37;;;;;;;;;;4394289;32;20087;-63
2021/10/31 13:47:19;;;;;;;11.98;7.60;;;;;;;;;;4394452;32;20460;-63
2021/10/31 13:49:48;;;;;;;12.32;7.57;;;;;;;;;;4397469;32;20070;-63
2021/10/31 13:52:15;;;;;;;13.52;7.53;;;;;;;;;;4407242;32;20084;-62
2021/10/31 13:54:44;;;;;;;12.37;7.75;;;;;;;;;;4382143;32;20088;-61
2021/10/31 13:57:23;;;;;;;14.32;7.32;;;;;;;;;;4381981;32;20157;-63
2021/10/31 13:59:51;;;;;;;10.65;6.80;;;;;;;;;;4394074;32;20529;-62
2021/10/31 14:02:18;;;;;;;11.65;6.60;;;;;;;;;;4406602;32;20504;-61
2021/10/31 14:04:45;;;;;;;9.90;6.50;;;;;;;;;;4381630;32;20070;-63
2021/10/31 14:07:12;;;;;;;10.40;6.55;;;;;;;;;;4394051;32;20077;-62
2021/10/31 14:09:46;;;;;;;10.20;6.87;;;;;;;;;;4406736;32;20599;-62
2021/10/31 14:12:25;;;;;;;15.30;7.53;;;;;;;;;;4381550;32;20112;-63
2021/10/31 14:15:06;;;;;;;10.75;6.70;;;;;;;;;;4380794;32;20155;-62
2021/10/31 14:17:34;;;;;;;10.27;7.30;;;;;;;;;;4406873;32;20081;-63
2021/10/31 14:20:02;;;;;;;11.52;7.50;;;;;;;;;;4393909;32;20097;-62
2021/10/31 14:22:42;;;;;;;10.05;6.53;;;;;;;;;;4393854;32;20092;-62
2021/10/31 14:25:11;;;;;;;11.07;6.70;;;;;;;;;;4383661;32;20100;-63
2021/10/31 14:27:39;;;;;;;9.45;5.87;;;;;;;;;;4406571;32;20072;-63
2021/10/31 14:30:26;;;;;;;9.35;6.25;;;;;;;;;;4368973;32;20077;-62
2021/10/31 14:33:12;;;;;;;9.07;6.10;;;;;;;;;;4382299;32;20089;-62
2021/10/31 14:35:47;;;;;;;10.23;5.93;;;;;;;;;;4395054;32;20081;-62
2021/10/31 14:38:30;;;;;;;8.68;5.35;;;;;;;;;;4393903;32;20077;-62
2021/10/31 14:41:20;;;;;;;9.48;5.95;;;;;;;;;;4381203;32;20069;-63
2021/10/31 14:43:54;;;;;;;7.85;5.03;;;;;;;;;;4406324;32;20148;-63
2021/10/31 14:46:23;;;;;;;9.32;5.28;;;;;;;;;;4392994;32;20116;-63
2021/10/31 14:49:02;;;;;;;8.02;5.60;;;;;;;;;;4393323;32;20519;-62
2021/10/31 14:51:48;;;;;;;8.95;5.37;;;;;;;;;;4405757;32;20105;-61
2021/10/31 14:54:26;;;;;;;8.77;5.73;;;;;;;;;;4395565;32;20066;-63
2021/10/31 14:57:15;;;;;;;10.70;5.53;;;;;;;;;;4380502;32;20605;-62
2021/10/31 14:59:52;;;;;;;6.90;4.93;;;;;;;;;;4406177;32;20080;-63
2021/10/31 15:02:28;;;;;;;8.75;5.82;;;;;;;;;;4382201;32;20242;-63
2021/10/31 15:04:55;;;;;;;10.23;5.82;;;;;;;;;;4381004;32;20104;-63